Impacts METAR Board
IDs:

KHUM - Houma/Terrebonne Arp, LA, US

Updated at: 1200 UTC 20 May 2018
Potential Impact None Slight Moderate High
Time 20/00Z 20/01Z 20/02Z 20/03Z 20/04Z 20/05Z 20/06Z 20/07Z 20/08Z 20/09Z 20/10Z 20/11Z 20/12Z
Temp82 80 79 76 76 75 73 73 74 74 72 72 72
Dewpt72 71 72 71 72 72 71 72 72 72 71 72 72
Altim29.96 29.97 29.99 30.02 30.03 30.03 30.02 30.01 30.01 30.02 30.03 30.03 30.03
VIS7 7 10 10 10 10 10 10 7 7 4 7 7
CIG-- -- -- -- -- -- -- -- -- -- -- -- --
CoverFEWCLRCLRCLRCLRCLRCLRCLRCLRCLRCLRSKCSKC
FltCatVFRVFRVFRVFRVFRVFRVFRVFRVFRVFRMVFRVFRVFR
WX--------------------BR----
WDir1401500012001100070000
WSpd10 5 0 0 3 0 3 0 0 4 0 0 0
WGst-- -- -- -- -- -- -- -- -- -- -- -- --
Raw hourly METARs
KHUM 192350Z 14010KT 7SM FEW100 28/22 A2996 RMK LAST
KHUM 200055Z AUTO 15005KT 7SM CLR 27/22 A2997 RMK AO2 T02650219
KHUM 200155Z AUTO 00000KT 10SM CLR 26/22 A2999 RMK AO2 T02590221
KHUM 200255Z AUTO 00000KT 10SM CLR 25/22 A3002 RMK AO2 T02450218
KHUM 200355Z AUTO 12003KT 10SM CLR 24/22 A3003 RMK AO2 T02430222
KHUM 200455Z AUTO 00000KT 10SM CLR 24/22 A3003 RMK AO2 T02380221
KHUM 200555Z AUTO 11003KT 10SM CLR 23/22 A3002 RMK AO2 T02290215 10286 20228 403120207
KHUM 200655Z AUTO 00000KT 10SM CLR 23/22 A3001 RMK AO2 T02300220
KHUM 200755Z AUTO 00000KT 7SM CLR 23/22 A3001 RMK AO2 T02320221
KHUM 200855Z AUTO 07004KT 7SM CLR 23/22 A3002 RMK AO2 T02320222
KHUM 200955Z AUTO 00000KT 4SM BR CLR 22/22 A3003 RMK AO2 T02200218
KHUM 201047Z 00000KT 7SM SKC 22/22 A3003
KHUM 201147Z 00000KT 7SM SKC 22/22 A3003



Page loaded:  12:22 UTC  |   05:22 AM Pacific  |   06:22 AM Mountain  |   07:22 AM Central  |   08:22 AM Eastern

 

ADVISORIES

FORECASTS

FORECASTS

OBSERVATIONS

USER TOOLS

ABOUT US